Time;durP1;ratioP1;P1;durP2;ratioP2;P2;SDS_P1;SDS_P2;PMS_P1;PMS_P2;Temp;Humidity;BMP_temperature;BMP_pressure;BME280_temperature;BME280_humidity;BME280_pressure;Samples;Min_cycle;Max_cycle;Signal;HPM_P1;HPM_P2
2021/11/26 00:02:15;;;;;;;21.57;5.70;;;;;;;;;;4997497;28;20679;-71
2021/11/26 00:04:41;;;;;;;12.77;5.57;;;;;;;;;;5006595;28;20183;-70
2021/11/26 00:07:06;;;;;;;17.67;4.93;;;;;;;;;;4998835;28;20656;-70
2021/11/26 00:09:31;;;;;;;16.07;5.73;;;;;;;;;;5012898;28;20634;-70
2021/11/26 00:11:57;;;;;;;23.23;5.77;;;;;;;;;;4994743;28;20183;-70
2021/11/26 00:14:26;;;;;;;21.90;6.37;;;;;;;;;;5009079;28;20182;-70
2021/11/26 00:16:57;;;;;;;20.63;5.43;;;;;;;;;;4996360;28;20191;-70
2021/11/26 00:19:26;;;;;;;22.93;5.87;;;;;;;;;;5021593;28;20189;-70
2021/11/26 00:21:53;;;;;;;16.43;6.07;;;;;;;;;;4998677;28;20190;-71
2021/11/26 00:24:19;;;;;;;17.63;6.13;;;;;;;;;;5009458;28;20580;-70
2021/11/26 00:26:46;;;;;;;16.27;6.40;;;;;;;;;;5006204;28;20179;-70
2021/11/26 00:29:11;;;;;;;19.90;6.77;;;;;;;;;;5008851;28;20349;-71
2021/11/26 00:31:37;;;;;;;19.17;6.23;;;;;;;;;;5004620;28;20610;-71
2021/11/26 00:34:04;;;;;;;20.27;6.10;;;;;;;;;;5002609;28;20202;-70
2021/11/26 00:36:30;;;;;;;13.17;5.77;;;;;;;;;;5004693;28;20330;-71
2021/11/26 00:38:56;;;;;;;16.60;6.23;;;;;;;;;;5002906;28;20268;-71
2021/11/26 00:41:21;;;;;;;19.97;6.23;;;;;;;;;;5007247;28;20175;-71
2021/11/26 00:43:47;;;;;;;21.83;7.03;;;;;;;;;;5000270;28;20186;-71
2021/11/26 00:46:12;;;;;;;19.53;6.57;;;;;;;;;;5000390;28;20190;-71
2021/11/26 00:48:38;;;;;;;22.20;6.80;;;;;;;;;;4999145;28;20186;-71
2021/11/26 00:51:04;;;;;;;17.47;6.90;;;;;;;;;;5007954;28;20199;-71
2021/11/26 00:53:29;;;;;;;19.60;7.67;;;;;;;;;;4999475;28;20194;-71
2021/11/26 00:55:54;;;;;;;21.40;7.10;;;;;;;;;;5008989;28;20198;-71
2021/11/26 00:58:20;;;;;;;21.27;6.90;;;;;;;;;;5005975;28;20210;-71
2021/11/26 01:00:45;;;;;;;15.83;6.57;;;;;;;;;;5000374;28;20197;-71
2021/11/26 01:03:11;;;;;;;23.50;7.00;;;;;;;;;;5003954;28;20191;-71
2021/11/26 01:05:36;;;;;;;18.87;6.97;;;;;;;;;;4998973;28;20198;-71
2021/11/26 01:08:02;;;;;;;22.47;7.40;;;;;;;;;;5010014;28;20233;-71
2021/11/26 01:10:27;;;;;;;23.57;7.37;;;;;;;;;;4996560;28;20370;-71
2021/11/26 01:12:53;;;;;;;21.40;6.97;;;;;;;;;;5014361;28;20186;-71
2021/11/26 01:15:23;;;;;;;23.03;7.43;;;;;;;;;;4999753;28;20190;-71
2021/11/26 01:17:49;;;;;;;19.50;7.70;;;;;;;;;;5006611;28;20182;-71
2021/11/26 01:20:19;;;;;;;16.30;7.10;;;;;;;;;;4998727;28;20194;-71
2021/11/26 01:22:45;;;;;;;19.60;7.57;;;;;;;;;;5006350;28;20198;-71
2021/11/26 01:25:12;;;;;;;21.40;7.13;;;;;;;;;;5004493;28;20202;-71
2021/11/26 01:27:38;;;;;;;16.30;6.90;;;;;;;;;;5003931;28;20193;-71
2021/11/26 01:30:12;;;;;;;19.83;7.17;;;;;;;;;;4999384;28;20552;-71
2021/11/26 01:32:37;;;;;;;19.97;7.47;;;;;;;;;;5004827;28;20199;-71
2021/11/26 01:35:03;;;;;;;13.13;7.30;;;;;;;;;;5001200;28;20193;-71
2021/11/26 01:37:29;;;;;;;21.67;7.43;;;;;;;;;;4994629;28;20193;-71
2021/11/26 01:39:55;;;;;;;21.57;7.20;;;;;;;;;;4996645;28;20190;-71
2021/11/26 01:42:20;;;;;;;18.23;7.53;;;;;;;;;;4998049;28;20542;-71
2021/11/26 01:44:46;;;;;;;18.83;7.33;;;;;;;;;;5004041;28;21113;-71
2021/11/26 01:47:12;;;;;;;15.60;7.20;;;;;;;;;;4997596;28;20526;-71
2021/11/26 01:49:38;;;;;;;15.50;7.07;;;;;;;;;;5009738;28;20189;-71
2021/11/26 01:52:03;;;;;;;21.40;8.30;;;;;;;;;;4998372;28;20207;-70
2021/11/26 01:54:29;;;;;;;13.23;6.53;;;;;;;;;;5006028;28;20183;-70
2021/11/26 01:56:55;;;;;;;20.70;7.53;;;;;;;;;;4998237;28;20203;-71
2021/11/26 01:59:20;;;;;;;19.83;7.33;;;;;;;;;;5008014;28;20190;-70
2021/11/26 02:01:46;;;;;;;20.87;7.07;;;;;;;;;;4996821;28;20186;-71
2021/11/26 02:04:11;;;;;;;22.07;7.60;;;;;;;;;;5005361;28;21607;-71
2021/11/26 02:06:36;;;;;;;16.40;7.37;;;;;;;;;;5004715;28;20311;-70
2021/11/26 02:09:01;;;;;;;18.47;7.37;;;;;;;;;;4998536;28;20285;-70
2021/11/26 02:11:27;;;;;;;18.87;7.53;;;;;;;;;;5004297;28;20567;-70
2021/11/26 02:13:53;;;;;;;19.70;6.97;;;;;;;;;;4997821;28;20190;-70
2021/11/26 02:16:18;;;;;;;17.90;8.10;;;;;;;;;;4998633;28;20220;-71
2021/11/26 02:18:50;;;;;;;20.83;7.57;;;;;;;;;;5002106;28;20186;-71
2021/11/26 02:21:18;;;;;;;18.60;6.60;;;;;;;;;;5008044;28;20190;-70
2021/11/26 02:23:44;;;;;;;21.57;7.20;;;;;;;;;;5001719;28;20677;-71
2021/11/26 02:26:09;;;;;;;18.93;7.33;;;;;;;;;;5009843;28;20187;-70
2021/11/26 02:28:35;;;;;;;22.83;7.53;;;;;;;;;;5000331;28;20183;-71
2021/11/26 02:31:00;;;;;;;20.07;7.13;;;;;;;;;;5006021;28;20206;-71
2021/11/26 02:33:25;;;;;;;21.33;7.80;;;;;;;;;;4997044;28;21225;-71
2021/11/26 02:35:53;;;;;;;18.73;8.20;;;;;;;;;;5011082;28;20608;-71
2021/11/26 02:38:21;;;;;;;17.63;8.77;;;;;;;;;;5001790;28;20198;-71
2021/11/26 02:40:47;;;;;;;20.17;7.10;;;;;;;;;;5010586;28;20650;-71
2021/11/26 02:43:13;;;;;;;18.67;7.10;;;;;;;;;;5011909;28;20328;-71
2021/11/26 02:45:40;;;;;;;25.17;7.00;;;;;;;;;;4996438;28;20229;-71
2021/11/26 02:48:07;;;;;;;19.07;7.40;;;;;;;;;;5007711;28;20233;-71
2021/11/26 02:50:33;;;;;;;19.77;7.10;;;;;;;;;;4999194;28;20211;-72
2021/11/26 02:52:59;;;;;;;18.23;7.53;;;;;;;;;;5006439;28;20187;-71
2021/11/26 02:55:28;;;;;;;19.90;7.07;;;;;;;;;;4992520;28;20215;-71
2021/11/26 02:57:54;;;;;;;22.33;8.07;;;;;;;;;;5007931;28;20622;-71
2021/11/26 03:00:24;;;;;;;18.33;7.53;;;;;;;;;;5001395;28;20191;-71
2021/11/26 03:02:50;;;;;;;16.83;7.17;;;;;;;;;;5004409;28;20241;-71
2021/11/26 03:05:16;;;;;;;21.07;7.63;;;;;;;;;;5001167;28;20187;-71
2021/11/26 03:07:42;;;;;;;17.37;8.23;;;;;;;;;;5006498;28;20709;-71
2021/11/26 03:10:09;;;;;;;20.77;7.40;;;;;;;;;;5000445;28;20590;-71
2021/11/26 03:12:34;;;;;;;18.63;7.53;;;;;;;;;;5008583;28;20190;-71
2021/11/26 03:15:00;;;;;;;17.40;8.17;;;;;;;;;;5018713;28;20209;-71
2021/11/26 03:17:26;;;;;;;24.97;7.73;;;;;;;;;;5003599;28;20578;-71
2021/11/26 03:19:52;;;;;;;21.00;7.93;;;;;;;;;;5011563;28;20210;-71
2021/11/26 03:22:18;;;;;;;19.60;7.97;;;;;;;;;;4996176;28;20194;-71
2021/11/26 03:24:43;;;;;;;20.57;8.13;;;;;;;;;;5010251;28;20191;-71
2021/11/26 03:27:09;;;;;;;16.37;7.80;;;;;;;;;;5006579;28;20687;-71
2021/11/26 03:29:34;;;;;;;16.47;7.13;;;;;;;;;;5007815;28;20187;-71
2021/11/26 03:31:59;;;;;;;14.50;8.13;;;;;;;;;;5004490;28;20186;-71
2021/11/26 03:34:25;;;;;;;23.07;8.77;;;;;;;;;;5005308;28;20270;-71
2021/11/26 03:36:51;;;;;;;20.33;7.50;;;;;;;;;;4998199;28;20225;-71
2021/11/26 03:39:16;;;;;;;19.27;8.03;;;;;;;;;;5005240;28;20256;-71
2021/11/26 03:41:41;;;;;;;15.33;7.30;;;;;;;;;;4995340;28;20190;-71
2021/11/26 03:44:07;;;;;;;13.50;8.13;;;;;;;;;;5008670;28;20194;-71
2021/11/26 03:46:33;;;;;;;17.87;7.93;;;;;;;;;;5002250;28;20699;-71
2021/11/26 03:48:59;;;;;;;19.50;7.90;;;;;;;;;;4998136;28;20205;-71
2021/11/26 03:51:24;;;;;;;16.47;7.53;;;;;;;;;;5015169;28;20530;-71
2021/11/26 03:53:49;;;;;;;15.97;7.77;;;;;;;;;;4997235;28;20217;-71
2021/11/26 03:56:15;;;;;;;16.73;7.50;;;;;;;;;;5011309;28;20771;-71
2021/11/26 03:58:40;;;;;;;21.63;8.33;;;;;;;;;;5000765;28;20716;-71
2021/11/26 04:01:06;;;;;;;16.70;7.53;;;;;;;;;;5008390;28;20193;-71
2021/11/26 04:03:31;;;;;;;14.83;7.20;;;;;;;;;;4998663;28;20261;-71
2021/11/26 04:05:56;;;;;;;15.57;7.20;;;;;;;;;;5011645;28;20622;-71
2021/11/26 04:08:22;;;;;;;17.00;7.60;;;;;;;;;;4997882;28;20228;-71
2021/11/26 04:10:47;;;;;;;18.03;8.13;;;;;;;;;;5020436;28;20289;-71
2021/11/26 04:13:15;;;;;;;19.57;7.60;;;;;;;;;;4999354;28;20181;-71
2021/11/26 04:15:40;;;;;;;13.23;7.23;;;;;;;;;;5005625;28;20704;-70
2021/11/26 04:18:07;;;;;;;13.57;7.63;;;;;;;;;;5009078;28;20187;-70
2021/11/26 04:20:33;;;;;;;12.53;6.67;;;;;;;;;;4998571;28;20188;-70
2021/11/26 04:22:59;;;;;;;17.83;7.80;;;;;;;;;;5007750;28;20241;-70
2021/11/26 04:25:25;;;;;;;15.17;7.77;;;;;;;;;;4997923;28;20190;-70
2021/11/26 04:27:51;;;;;;;15.70;7.67;;;;;;;;;;5008150;28;20245;-70
2021/11/26 04:30:18;;;;;;;15.27;7.90;;;;;;;;;;4999981;28;20245;-71
2021/11/26 04:32:46;;;;;;;23.93;8.50;;;;;;;;;;5004174;28;20257;-71
2021/11/26 04:35:12;;;;;;;16.13;8.37;;;;;;;;;;4996921;28;20210;-71
2021/11/26 04:37:38;;;;;;;16.67;8.27;;;;;;;;;;5008444;28;20567;-71
2021/11/26 04:40:05;;;;;;;18.00;8.47;;;;;;;;;;4998829;28;20199;-71
2021/11/26 04:42:32;;;;;;;21.43;8.20;;;;;;;;;;5007143;28;20245;-70
2021/11/26 04:44:57;;;;;;;15.77;7.77;;;;;;;;;;5008750;28;20198;-70
2021/11/26 04:47:23;;;;;;;16.97;7.83;;;;;;;;;;4999403;28;20206;-71
2021/11/26 04:49:48;;;;;;;16.87;7.63;;;;;;;;;;5004582;28;20208;-71
2021/11/26 04:52:13;;;;;;;17.23;8.50;;;;;;;;;;4999875;28;20202;-71
2021/11/26 04:54:39;;;;;;;18.90;8.73;;;;;;;;;;5004321;28;20187;-70
2021/11/26 04:57:04;;;;;;;12.27;8.10;;;;;;;;;;5004098;28;20320;-70
2021/11/26 04:59:30;;;;;;;17.37;8.30;;;;;;;;;;5003641;28;20273;-70
2021/11/26 05:01:55;;;;;;;16.13;7.93;;;;;;;;;;5000200;28;20201;-70
2021/11/26 05:04:20;;;;;;;16.90;7.83;;;;;;;;;;5010383;28;20198;-70
2021/11/26 05:06:46;;;;;;;21.27;10.10;;;;;;;;;;5003444;28;20227;-70
2021/11/26 05:09:11;;;;;;;16.67;8.13;;;;;;;;;;5003830;28;20556;-70
2021/11/26 05:11:38;;;;;;;17.23;8.40;;;;;;;;;;5003326;28;20750;-70
2021/11/26 05:14:04;;;;;;;17.37;8.20;;;;;;;;;;5003105;28;20262;-72
2021/11/26 05:16:30;;;;;;;15.97;7.70;;;;;;;;;;4999721;28;20191;-71
2021/11/26 05:18:56;;;;;;;12.80;8.67;;;;;;;;;;5005577;28;20731;-71
2021/11/26 05:21:21;;;;;;;16.30;8.37;;;;;;;;;;5004171;28;20550;-71
2021/11/26 05:23:46;;;;;;;13.93;7.97;;;;;;;;;;5002369;28;20194;-71
2021/11/26 05:26:12;;;;;;;16.43;7.67;;;;;;;;;;5004071;28;20182;-71
2021/11/26 05:28:38;;;;;;;13.63;8.37;;;;;;;;;;4998621;28;20527;-71
2021/11/26 05:31:04;;;;;;;15.00;8.43;;;;;;;;;;5004864;28;20217;-71
2021/11/26 05:33:29;;;;;;;16.80;8.37;;;;;;;;;;4997642;28;20183;-72
2021/11/26 05:35:55;;;;;;;16.73;8.37;;;;;;;;;;5002944;28;20195;-71
2021/11/26 05:38:20;;;;;;;18.07;7.97;;;;;;;;;;4995320;28;20273;-71
2021/11/26 05:40:46;;;;;;;15.63;8.67;;;;;;;;;;5003284;28;20190;-71
2021/11/26 05:43:12;;;;;;;14.37;8.13;;;;;;;;;;4999029;28;20187;-71
2021/11/26 05:45:38;;;;;;;13.83;8.07;;;;;;;;;;5002623;28;20191;-71
2021/11/26 05:48:03;;;;;;;11.33;7.13;;;;;;;;;;5001282;28;20191;-71
2021/11/26 05:50:29;;;;;;;17.13;8.27;;;;;;;;;;5001385;28;20234;-71
2021/11/26 05:52:55;;;;;;;14.23;7.87;;;;;;;;;;5005498;28;20248;-71
2021/11/26 05:55:24;;;;;;;16.23;7.70;;;;;;;;;;4995878;28;20211;-70
2021/11/26 05:57:51;;;;;;;13.37;7.67;;;;;;;;;;5002769;28;20252;-70
2021/11/26 06:00:18;;;;;;;14.70;8.17;;;;;;;;;;4991845;28;20202;-70
2021/11/26 06:02:43;;;;;;;11.17;7.27;;;;;;;;;;5005650;28;20202;-70
2021/11/26 06:05:10;;;;;;;13.33;7.20;;;;;;;;;;4995828;28;20199;-70
2021/11/26 06:07:35;;;;;;;15.37;7.40;;;;;;;;;;5013748;28;20237;-71
2021/11/26 06:10:06;;;;;;;12.93;7.57;;;;;;;;;;4997488;28;20210;-71
2021/11/26 06:12:31;;;;;;;14.10;7.57;;;;;;;;;;5006598;28;20685;-71
2021/11/26 06:14:57;;;;;;;13.40;7.13;;;;;;;;;;4997496;28;20270;-71
2021/11/26 06:17:22;;;;;;;11.80;7.07;;;;;;;;;;5006968;28;20230;-70
2021/11/26 06:19:48;;;;;;;20.67;8.37;;;;;;;;;;4991179;28;20190;-71
2021/11/26 06:22:14;;;;;;;15.23;7.00;;;;;;;;;;4314679;28;10000800;-70
2021/11/26 06:24:39;;;;;;;15.67;7.37;;;;;;;;;;5002692;28;20179;-71
2021/11/26 06:27:05;;;;;;;15.77;7.33;;;;;;;;;;4994929;28;20772;-71
2021/11/26 06:29:30;;;;;;;15.17;7.37;;;;;;;;;;4996031;28;20190;-70
2021/11/26 06:31:56;;;;;;;13.07;7.07;;;;;;;;;;4994618;28;20214;-72
2021/11/26 06:34:21;;;;;;;13.27;6.60;;;;;;;;;;4993678;28;20175;-70
2021/11/26 06:36:46;;;;;;;12.53;7.43;;;;;;;;;;4988551;28;20210;-70
2021/11/26 06:39:12;;;;;;;14.73;7.30;;;;;;;;;;4999434;28;20670;-70
2021/11/26 06:41:37;;;;;;;10.40;7.43;;;;;;;;;;4991069;28;20553;-71
2021/11/26 06:44:03;;;;;;;16.57;7.17;;;;;;;;;;4998814;28;20613;-71
2021/11/26 06:46:28;;;;;;;15.80;6.83;;;;;;;;;;4992595;28;20195;-70
2021/11/26 06:48:53;;;;;;;15.37;7.70;;;;;;;;;;5005615;28;20218;-70
2021/11/26 06:51:19;;;;;;;14.87;7.83;;;;;;;;;;5001569;28;20541;-71
2021/11/26 06:53:44;;;;;;;12.03;7.73;;;;;;;;;;4997559;28;20866;-70
2021/11/26 06:56:09;;;;;;;14.13;7.97;;;;;;;;;;5002327;28;20254;-70
2021/11/26 06:58:35;;;;;;;19.30;8.60;;;;;;;;;;4994500;28;20269;-70
2021/11/26 07:01:00;;;;;;;15.67;8.10;;;;;;;;;;5004069;28;21292;-71
2021/11/26 07:03:26;;;;;;;14.17;8.23;;;;;;;;;;4998942;28;20673;-71
2021/11/26 07:05:51;;;;;;;17.90;7.70;;;;;;;;;;5006303;28;20184;-71
2021/11/26 07:08:18;;;;;;;19.87;9.10;;;;;;;;;;4996650;28;21005;-71
2021/11/26 07:10:44;;;;;;;16.70;9.47;;;;;;;;;;5005200;28;20534;-71
2021/11/26 07:13:10;;;;;;;17.27;10.37;;;;;;;;;;5003419;28;20197;-71
2021/11/26 07:15:35;;;;;;;18.60;10.10;;;;;;;;;;5006337;28;20171;-71
2021/11/26 07:18:00;;;;;;;17.43;10.77;;;;;;;;;;4998106;28;20643;-71
2021/11/26 07:20:26;;;;;;;16.83;9.83;;;;;;;;;;4999613;28;20303;-71
2021/11/26 07:22:51;;;;;;;16.77;9.93;;;;;;;;;;5006654;28;20191;-71
2021/11/26 07:25:16;;;;;;;20.67;10.53;;;;;;;;;;4999110;28;20257;-71
2021/11/26 07:27:42;;;;;;;17.93;10.07;;;;;;;;;;5005343;28;20192;-71
2021/11/26 07:30:09;;;;;;;19.47;9.50;;;;;;;;;;5000148;28;20566;-71
2021/11/26 07:32:36;;;;;;;15.20;9.37;;;;;;;;;;5025454;28;20261;-71
2021/11/26 07:35:02;;;;;;;17.20;9.83;;;;;;;;;;5000047;28;20189;-71
2021/11/26 07:37:27;;;;;;;17.47;9.03;;;;;;;;;;5011018;28;20206;-71
2021/11/26 07:39:53;;;;;;;19.27;8.80;;;;;;;;;;4999883;28;20199;-71
2021/11/26 07:42:18;;;;;;;18.80;8.90;;;;;;;;;;5011865;28;20249;-72
2021/11/26 07:44:44;;;;;;;14.77;8.13;;;;;;;;;;5008384;28;20305;-71
2021/11/26 07:47:13;;;;;;;15.93;8.50;;;;;;;;;;5010035;28;20195;-71
2021/11/26 07:49:39;;;;;;;13.47;8.37;;;;;;;;;;4995668;28;20202;-71
2021/11/26 07:52:07;;;;;;;14.47;8.40;;;;;;;;;;5006703;28;20213;-71
2021/11/26 07:54:33;;;;;;;13.70;8.10;;;;;;;;;;5012753;28;20221;-71
2021/11/26 07:56:58;;;;;;;14.10;7.90;;;;;;;;;;4998838;28;20242;-71
2021/11/26 07:59:26;;;;;;;14.33;8.03;;;;;;;;;;5022928;28;20182;-71
2021/11/26 08:01:51;;;;;;;18.43;8.20;;;;;;;;;;4998392;28;20540;-71
2021/11/26 08:04:17;;;;;;;13.97;7.90;;;;;;;;;;4999457;28;20190;-71
2021/11/26 08:06:45;;;;;;;15.47;8.50;;;;;;;;;;4998740;28;20683;-71
2021/11/26 08:09:15;;;;;;;13.07;7.50;;;;;;;;;;5011736;28;20218;-72
2021/11/26 08:11:42;;;;;;;17.87;8.00;;;;;;;;;;5001004;28;20219;-72
2021/11/26 08:14:08;;;;;;;14.13;8.13;;;;;;;;;;5016403;28;20186;-71
2021/11/26 08:16:34;;;;;;;18.13;8.40;;;;;;;;;;5000423;28;20205;-72
2021/11/26 08:19:00;;;;;;;21.27;8.20;;;;;;;;;;5008420;28;20187;-71
2021/11/26 08:21:25;;;;;;;18.67;8.93;;;;;;;;;;4994296;28;20190;-72
2021/11/26 08:23:50;;;;;;;20.90;8.23;;;;;;;;;;5011457;28;22320;-72
2021/11/26 08:26:16;;;;;;;17.30;8.67;;;;;;;;;;5011992;28;20234;-71
2021/11/26 08:28:41;;;;;;;15.80;7.40;;;;;;;;;;4310700;28;10000686;-71
2021/11/26 08:31:07;;;;;;;17.77;8.27;;;;;;;;;;4997269;28;20232;-72
2021/11/26 08:33:32;;;;;;;13.50;7.10;;;;;;;;;;4993619;28;20187;-71
2021/11/26 08:35:57;;;;;;;14.90;7.57;;;;;;;;;;5003202;28;20260;-71
2021/11/26 08:38:24;;;;;;;12.87;7.20;;;;;;;;;;4993236;28;20186;-71
2021/11/26 08:40:50;;;;;;;18.40;7.07;;;;;;;;;;5000155;28;20685;-72
2021/11/26 08:43:15;;;;;;;13.77;7.50;;;;;;;;;;4993658;28;20187;-72
2021/11/26 08:45:41;;;;;;;13.10;7.33;;;;;;;;;;5008346;28;20681;-71
2021/11/26 08:48:06;;;;;;;16.23;6.87;;;;;;;;;;4997453;28;20539;-71
2021/11/26 08:50:34;;;;;;;14.07;6.57;;;;;;;;;;5002275;28;20609;-70
2021/11/26 08:53:02;;;;;;;19.90;7.17;;;;;;;;;;4997748;28;20284;-71
2021/11/26 08:55:27;;;;;;;12.53;6.70;;;;;;;;;;4999255;28;20273;-71
2021/11/26 08:57:54;;;;;;;18.03;6.40;;;;;;;;;;5003417;28;20178;-71
2021/11/26 09:00:24;;;;;;;18.30;6.43;;;;;;;;;;5000195;28;20183;-71
2021/11/26 09:02:50;;;;;;;19.73;6.40;;;;;;;;;;5007173;28;20595;-71
2021/11/26 09:05:15;;;;;;;16.43;7.37;;;;;;;;;;5007175;28;20224;-71
2021/11/26 09:07:43;;;;;;;16.67;6.70;;;;;;;;;;5006100;28;20601;-71
2021/11/26 09:10:09;;;;;;;20.10;7.67;;;;;;;;;;4999969;28;20214;-71
2021/11/26 09:12:35;;;;;;;18.63;7.43;;;;;;;;;;5007999;28;20203;-71
2021/11/26 09:15:01;;;;;;;15.33;7.20;;;;;;;;;;5005268;28;20638;-71
2021/11/26 09:17:26;;;;;;;17.03;8.10;;;;;;;;;;5009428;28;20209;-71
2021/11/26 09:19:52;;;;;;;14.93;8.10;;;;;;;;;;4999549;28;20191;-71
2021/11/26 09:22:17;;;;;;;18.83;8.77;;;;;;;;;;5012627;28;20221;-71
2021/11/26 09:24:42;;;;;;;18.80;8.00;;;;;;;;;;4998468;28;20232;-72
2021/11/26 09:27:08;;;;;;;16.93;9.60;;;;;;;;;;5012565;28;20558;-72
2021/11/26 09:29:33;;;;;;;16.93;9.57;;;;;;;;;;5006529;28;20240;-71
2021/11/26 09:32:00;;;;;;;19.20;8.60;;;;;;;;;;4987392;28;20206;-71
2021/11/26 09:34:25;;;;;;;18.47;9.20;;;;;;;;;;5003686;28;20191;-72
2021/11/26 09:36:51;;;;;;;19.67;9.97;;;;;;;;;;5000816;28;20186;-71
2021/11/26 09:39:16;;;;;;;20.17;9.43;;;;;;;;;;5005564;28;20198;-71
2021/11/26 09:41:43;;;;;;;17.17;9.03;;;;;;;;;;4996352;28;20245;-72
2021/11/26 09:44:11;;;;;;;23.93;9.63;;;;;;;;;;5002528;28;20207;-73
2021/11/26 09:46:38;;;;;;;16.33;9.40;;;;;;;;;;4997277;28;20198;-72
2021/11/26 09:49:05;;;;;;;24.90;9.87;;;;;;;;;;5003608;28;20678;-72
2021/11/26 09:51:31;;;;;;;18.87;9.37;;;;;;;;;;4994049;28;20503;-71
2021/11/26 09:53:57;;;;;;;16.70;8.20;;;;;;;;;;5001928;28;20659;-72
2021/11/26 09:56:23;;;;;;;20.50;9.27;;;;;;;;;;5004140;28;20332;-71
2021/11/26 09:58:48;;;;;;;13.80;8.73;;;;;;;;;;5007734;28;20281;-71
2021/11/26 10:01:14;;;;;;;21.07;9.13;;;;;;;;;;5004953;28;20530;-72
2021/11/26 10:03:45;;;;;;;19.47;9.27;;;;;;;;;;4999496;28;20245;-72
2021/11/26 10:06:38;;;;;;;18.37;8.53;;;;;;;;;;5009442;28;20188;-71
2021/11/26 10:09:12;;;;;;;14.80;6.87;;;;;;;;;;5000356;28;20277;-72
2021/11/26 10:11:49;;;;;;;17.37;7.50;;;;;;;;;;5009111;28;20273;-71
2021/11/26 10:14:23;;;;;;;17.37;7.73;;;;;;;;;;5002733;28;20190;-71
2021/11/26 10:16:55;;;;;;;20.40;7.20;;;;;;;;;;5008195;28;20218;-72
2021/11/26 10:19:36;;;;;;;16.33;6.57;;;;;;;;;;5006302;28;20214;-72
2021/11/26 10:22:12;;;;;;;17.37;6.27;;;;;;;;;;5003843;28;20171;-71
2021/11/26 10:24:38;;;;;;;15.80;5.97;;;;;;;;;;4998481;28;20662;-72
2021/11/26 10:27:03;;;;;;;18.47;6.63;;;;;;;;;;5007065;28;20182;-71
2021/11/26 10:29:38;;;;;;;16.23;5.83;;;;;;;;;;4998803;28;20229;-72
2021/11/26 10:32:12;;;;;;;13.77;5.90;;;;;;;;;;5005096;28;20665;-71
2021/11/26 10:34:40;;;;;;;18.37;6.07;;;;;;;;;;5000674;28;20195;-72
2021/11/26 10:37:18;;;;;;;21.53;5.93;;;;;;;;;;5007118;28;20183;-71
2021/11/26 10:39:43;;;;;;;17.50;5.83;;;;;;;;;;5001254;28;20250;-72
2021/11/26 10:42:08;;;;;;;15.33;6.43;;;;;;;;;;5009451;28;20288;-72
2021/11/26 10:44:51;;;;;;;19.67;6.20;;;;;;;;;;5002614;28;20190;-72
2021/11/26 10:50:05;;;;;;;15.10;5.63;;;;;;;;;;4999644;28;20199;-71
2021/11/26 11:00:47;;;;;;;16.30;5.63;;;;;;;;;;4985099;28;20191;-72
2021/11/26 11:03:13;;;;;;;17.23;5.23;;;;;;;;;;5017066;28;20182;-71
2021/11/26 11:05:39;;;;;;;18.07;5.00;;;;;;;;;;5003597;28;20670;-71
2021/11/26 11:08:23;;;;;;;14.87;4.70;;;;;;;;;;5011801;28;20298;-72
2021/11/26 11:10:49;;;;;;;17.63;5.80;;;;;;;;;;5009033;28;20213;-72
2021/11/26 11:13:23;;;;;;;17.50;5.23;;;;;;;;;;5008697;28;20206;-71
2021/11/26 11:15:50;;;;;;;18.00;5.07;;;;;;;;;;5006439;28;20193;-71
2021/11/26 11:18:16;;;;;;;17.63;4.73;;;;;;;;;;5006667;28;21764;-72
2021/11/26 11:20:43;;;;;;;15.60;5.27;;;;;;;;;;5012929;28;20286;-71
2021/11/26 11:23:09;;;;;;;16.93;5.77;;;;;;;;;;5006956;28;20752;-71
2021/11/26 11:25:35;;;;;;;16.67;5.13;;;;;;;;;;5010982;28;20202;-71
2021/11/26 11:28:08;;;;;;;13.27;5.37;;;;;;;;;;5004482;28;20182;-72
2021/11/26 11:30:34;;;;;;;14.10;4.70;;;;;;;;;;5009957;28;20219;-71
2021/11/26 11:33:00;;;;;;;13.50;4.53;;;;;;;;;;5001296;28;20650;-72
2021/11/26 11:35:29;;;;;;;21.67;6.03;;;;;;;;;;5008079;28;20265;-71
2021/11/26 11:37:57;;;;;;;12.33;5.00;;;;;;;;;;4995602;28;20187;-73
2021/11/26 11:40:32;;;;;;;13.63;4.37;;;;;;;;;;5004845;28;20179;-72
2021/11/26 11:43:11;;;;;;;16.43;4.57;;;;;;;;;;5001004;28;20670;-72
2021/11/26 11:45:38;;;;;;;12.73;4.80;;;;;;;;;;5001221;28;20253;-70
2021/11/26 11:48:05;;;;;;;11.57;4.10;;;;;;;;;;5002119;28;20205;-72
2021/11/26 11:50:39;;;;;;;17.70;4.87;;;;;;;;;;5005322;28;20237;-71
2021/11/26 11:53:04;;;;;;;15.63;4.73;;;;;;;;;;5006177;28;20194;-72
2021/11/26 11:55:36;;;;;;;15.87;4.90;;;;;;;;;;5008635;28;20214;-72
2021/11/26 11:58:47;;;;;;;16.17;4.93;;;;;;;;;;5008916;28;20204;-71
2021/11/26 12:01:22;;;;;;;10.83;4.60;;;;;;;;;;4988793;28;20244;-71
2021/11/26 12:03:49;;;;;;;11.83;4.60;;;;;;;;;;5005333;28;20206;-72
2021/11/26 12:06:15;;;;;;;12.83;4.53;;;;;;;;;;5007464;28;20221;-72
2021/11/26 12:08:47;;;;;;;10.70;4.77;;;;;;;;;;5001134;28;20242;-72
2021/11/26 12:11:27;;;;;;;10.77;5.27;;;;;;;;;;5013771;28;20224;-72
2021/11/26 12:14:06;;;;;;;12.70;5.50;;;;;;;;;;4996659;28;20222;-73
2021/11/26 12:16:43;;;;;;;13.87;5.07;;;;;;;;;;5012912;28;20200;-72
2021/11/26 12:19:16;;;;;;;11.23;5.07;;;;;;;;;;4998796;28;20261;-72
2021/11/26 12:21:46;;;;;;;12.97;5.77;;;;;;;;;;5008671;28;20257;-71
2021/11/26 12:24:22;;;;;;;12.97;5.43;;;;;;;;;;4999900;28;20647;-71
2021/11/26 12:26:58;;;;;;;11.83;5.27;;;;;;;;;;5017642;28;20205;-72
2021/11/26 12:29:46;;;;;;;16.80;5.60;;;;;;;;;;4994953;28;20229;-71
2021/11/26 12:32:17;;;;;;;12.23;5.50;;;;;;;;;;5002591;28;20549;-72
2021/11/26 12:34:51;;;;;;;14.13;5.20;;;;;;;;;;4998754;28;20191;-72
2021/11/26 12:37:18;;;;;;;16.17;6.07;;;;;;;;;;4999980;28;20210;-73
2021/11/26 12:39:43;;;;;;;11.13;6.07;;;;;;;;;;4995147;28;20732;-72
2021/11/26 12:42:09;;;;;;;15.93;5.67;;;;;;;;;;5005025;28;20182;-72
2021/11/26 12:44:34;;;;;;;14.10;5.77;;;;;;;;;;5007010;28;20214;-72
2021/11/26 12:47:04;;;;;;;14.07;4.57;;;;;;;;;;5000514;28;20194;-72
2021/11/26 12:52:21;;;;;;;14.77;5.93;;;;;;;;;;5002805;28;20218;-73
2021/11/26 12:54:49;;;;;;;13.70;6.27;;;;;;;;;;5017765;28;20199;-72
2021/11/26 12:57:21;;;;;;;14.90;8.40;;;;;;;;;;5002257;28;20209;-72
2021/11/26 12:59:52;;;;;;;13.03;5.80;;;;;;;;;;5009717;28;20190;-72
2021/11/26 13:02:26;;;;;;;17.10;6.20;;;;;;;;;;4998036;28;20738;-73
2021/11/26 13:05:05;;;;;;;14.10;5.73;;;;;;;;;;5013131;28;20240;-72
2021/11/26 13:07:34;;;;;;;19.17;6.40;;;;;;;;;;5014136;28;20195;-72
2021/11/26 13:10:05;;;;;;;13.10;5.87;;;;;;;;;;5009394;28;20226;-72
2021/11/26 13:12:37;;;;;;;13.50;6.23;;;;;;;;;;5006504;28;20224;-72
2021/11/26 13:15:21;;;;;;;19.13;6.43;;;;;;;;;;5010248;28;20247;-72
2021/11/26 13:17:48;;;;;;;12.63;6.13;;;;;;;;;;5002285;28;20222;-72
2021/11/26 13:20:19;;;;;;;20.10;6.50;;;;;;;;;;5007228;28;20528;-72
2021/11/26 13:22:54;;;;;;;15.83;7.03;;;;;;;;;;4998723;28;20576;-72
2021/11/26 13:25:24;;;;;;;15.17;5.50;;;;;;;;;;5001790;28;20277;-72
2021/11/26 13:27:50;;;;;;;15.77;6.67;;;;;;;;;;4997240;28;20213;-71
2021/11/26 13:30:18;;;;;;;14.43;6.17;;;;;;;;;;5004334;28;20654;-72
2021/11/26 13:32:44;;;;;;;15.20;5.27;;;;;;;;;;4998117;28;20253;-72
2021/11/26 13:35:09;;;;;;;16.83;5.00;;;;;;;;;;5005157;28;20194;-72
2021/11/26 13:37:36;;;;;;;19.03;5.77;;;;;;;;;;5001418;28;20198;-71
2021/11/26 13:40:02;;;;;;;14.13;5.90;;;;;;;;;;5006132;28;20213;-72
2021/11/26 13:42:28;;;;;;;12.43;5.17;;;;;;;;;;5002358;28;20203;-71
2021/11/26 13:44:55;;;;;;;10.40;4.73;;;;;;;;;;5012824;28;20186;-72
2021/11/26 13:47:22;;;;;;;12.77;5.10;;;;;;;;;;5010565;28;20285;-72
2021/11/26 13:49:50;;;;;;;11.97;4.80;;;;;;;;;;5003017;28;20282;-71
2021/11/26 13:52:23;;;;;;;19.80;4.50;;;;;;;;;;5014108;28;20221;-72
2021/11/26 13:54:48;;;;;;;16.30;5.40;;;;;;;;;;5007353;28;20216;-72
2021/11/26 13:57:24;;;;;;;14.00;4.70;;;;;;;;;;5009268;28;20182;-71
2021/11/26 13:59:59;;;;;;;11.60;3.97;;;;;;;;;;4998375;28;20279;-72
2021/11/26 14:02:25;;;;;;;11.23;4.53;;;;;;;;;;5007090;28;20415;-72
2021/11/26 14:04:53;;;;;;;8.43;3.57;;;;;;;;;;5011192;28;20533;-74
2021/11/26 14:07:21;;;;;;;8.20;3.53;;;;;;;;;;5008390;28;20252;-72
2021/11/26 14:10:04;;;;;;;7.67;3.60;;;;;;;;;;5002358;28;20314;-72
2021/11/26 14:12:30;;;;;;;8.40;3.33;;;;;;;;;;5009315;28;20186;-73
2021/11/26 14:14:55;;;;;;;9.90;3.10;;;;;;;;;;5011582;28;20526;-71
2021/11/26 14:17:26;;;;;;;9.10;3.97;;;;;;;;;;5014500;28;20225;-71
2021/11/26 14:19:54;;;;;;;5.90;3.30;;;;;;;;;;5014875;28;20227;-72
2021/11/26 14:22:28;;;;;;;7.30;3.40;;;;;;;;;;5007321;28;21706;-72
2021/11/26 14:25:05;;;;;;;8.00;3.30;;;;;;;;;;5006979;28;20187;-72
2021/11/26 14:27:54;;;;;;;5.87;2.97;;;;;;;;;;5018587;28;20182;-72
2021/11/26 14:30:24;;;;;;;7.63;2.97;;;;;;;;;;5003138;28;20610;-73
2021/11/26 14:33:04;;;;;;;7.40;3.00;;;;;;;;;;5020988;28;21182;-72
2021/11/26 14:35:32;;;;;;;7.70;3.10;;;;;;;;;;5001776;28;20204;-73
2021/11/26 14:38:09;;;;;;;7.13;3.30;;;;;;;;;;5023315;28;20248;-72
2021/11/26 14:40:37;;;;;;;8.23;3.10;;;;;;;;;;5005902;28;20194;-72
2021/11/26 14:43:06;;;;;;;7.97;3.03;;;;;;;;;;5013521;28;20642;-72
2021/11/26 14:45:37;;;;;;;5.27;2.57;;;;;;;;;;5005443;28;20198;-73
2021/11/26 14:48:34;;;;;;;8.73;3.00;;;;;;;;;;5009202;28;20516;-74